Airfield :
LOGIN :

Register | Disclaimer

   EN    FR    IT 

 










Legend :    VFR   Marginal VFR   IFR   Intensive IFR   Very Intensive IFR
Visi :
Ceiling :
>= 8 km
>= 3000ft
5 to 8 km
1000 to 3000 ft
1500m to 5 km
500 to 1000 ft
800 to 1500m
200 to 500 ft
< 800m
< 200 ft
Symbols :   Thunderstorms  Fog  Heavy snow  Heavy precipitations  Wind > 20 kt
SIGMETs :     Misc.  Thunderstorms  Icing  Turbulence  Mountain Waves  Volcanic Ashes






- Airport Elevation : 458 ft


LFSI - St-Dizier

CURRENT METAR :
  • 211830Z AUTO 33008KT 9999 FEW010 BKN023 OVC029 10/07 Q1015

EXPIRED METARs :
  • 211800Z AUTO 28010KT 250V310 9999 FEW011 BKN017 BKN022 11/09 Q1014
  • 211730Z AUTO 27007KT 9999 FEW008/// OVC064/// ///TCU 10/10 Q1013
  • 211700Z AUTO 28008KT 9999 -RA FEW008/// BKN012/// BKN027/// ///CB 11/10 Q1012
  • 211630Z AUTO 29015KT 3700 +RA BR FEW013/// BKN028/// BKN034/// ///CB 11/10 Q1012
  • 211600Z AUTO 27006KT 8000 -RA FEW019/// OVC038/// ///CB 12/10 Q1011

TAF TAF LFSI
Valid from the 21 at 15:00 until the 22 at 15:00 UTC


211400Z 2115/2215 24010KT 9999 BKN040
TEMPO 2115/2117 3000 SHRA SCT008 BKN020TCU BKN025
BECMG 2117/2119 33010KT
BECMG 2120/2122 VRB02KT
TEMPO 2200/2208 0600 BCFG BKN002
BECMG 2208/2210 22010KT SCT007



MET'MAP, your aeronautical weather chart ! - Copyright ORBIFLY December 2007 - Disclaimer

ORBIFLY MET'MAP TEAM :

Programming & Development : Alexandra Zaïnal
Concept & original design : Baudouin d'Aumeries
Assistance for programming : Marc-Olivier Méhu
Technical & hardware support : Manuel Goepfert

Contact : metmap@orbifly.com




SOURCES & CREDITS :

   NOAA